Time;durP1;ratioP1;P1;durP2;ratioP2;P2;SDS_P1;SDS_P2;PMS_P1;PMS_P2;Temp;Humidity;BMP_temperature;BMP_pressure;BME280_temperature;BME280_humidity;BME280_pressure;Samples;Min_cycle;Max_cycle;Signal;HPM_P1;HPM_P2
2022/01/11 00:00:35;;;;;;;;;29.50;25.25;;;;;3.97;85.04;102466.63;5022378;28;45926;-76
2022/01/11 00:03:02;;;;;;;;;29.50;26.00;;;;;3.96;85.23;102460.53;5022059;28;45280;-76
2022/01/11 00:05:32;;;;;;;;;27.33;22.00;;;;;3.96;85.49;102464.94;5020386;28;48286;-77
2022/01/11 00:07:58;;;;;;;;;25.75;22.75;;;;;3.87;86.21;102456.66;5020161;28;45912;-76
2022/01/11 00:10:34;;;;;;;;;23.75;20.75;;;;;3.74;84.61;102443.31;5021701;28;45302;-76
2022/01/11 00:13:01;;;;;;;;;22.25;20.50;;;;;3.81;85.72;102461.41;5021800;28;45316;-76
2022/01/11 00:15:28;;;;;;;;;21.00;21.00;;;;;3.84;86.43;102462.09;5020321;28;47242;-76
2022/01/11 00:17:57;;;;;;;;;21.75;17.25;;;;;3.88;85.62;102474.13;5007708;28;45440;-76
2022/01/11 00:20:23;;;;;;;;;21.25;20.25;;;;;3.84;86.12;102466.50;4982127;28;45335;-76
2022/01/11 00:25:38;;;;;;;;;27.50;23.00;;;;;3.99;85.58;102483.19;4960994;28;45956;-77
2022/01/11 00:28:05;;;;;;;;;20.75;20.25;;;;;3.88;85.55;102471.50;5013687;28;45322;-77
2022/01/11 00:30:34;;;;;;;;;22.00;22.00;;;;;3.93;85.26;102487.03;4982200;28;45410;-77
2022/01/11 00:33:02;;;;;;;;;2.00;0.00;;;;;3.86;86.02;102475.97;4982063;28;45403;-76
2022/01/11 00:35:39;;;;;;;;;20.50;17.25;;;;;3.95;85.83;102492.19;4981580;28;45419;-76
2022/01/11 00:38:06;;;;;;;;;22.00;21.00;;;;;3.94;85.74;102477.31;4982020;28;45448;-76
2022/01/11 00:40:31;;;;;;;;;25.75;22.50;;;;;3.78;85.62;102455.38;4980557;28;45402;-76
2022/01/11 00:42:59;;;;;;;;;20.33;17.33;;;;;3.86;85.37;102472.53;4981928;28;45538;-76
2022/01/11 00:45:26;;;;;;;;;22.00;20.67;;;;;3.84;85.55;102464.72;4981881;28;45332;-76
2022/01/11 00:47:51;;;;;;;;;19.00;17.67;;;;;3.76;85.81;102453.75;5013363;28;45325;-76
2022/01/11 00:50:18;;;;;;;;;23.00;19.25;;;;;3.98;85.71;102482.31;4981747;28;45559;-76
2022/01/11 00:52:43;;;;;;;;;20.50;20.50;;;;;3.82;85.18;102469.19;4981825;28;45302;-76
2022/01/11 00:55:09;;;;;;;;;19.50;15.75;;;;;3.83;84.47;102496.38;4981488;28;46292;-76
2022/01/11 00:57:34;;;;;;;;;17.25;17.25;;;;;3.75;84.66;102486.28;4980363;28;45194;-76
2022/01/11 00:59:59;;;;;;;;;19.00;16.25;;;;;3.60;85.13;102474.81;4981964;28;45167;-76
2022/01/11 01:02:25;;;;;;;;;19.50;19.50;;;;;3.54;85.12;102468.97;4981534;28;45430;-76
2022/01/11 01:04:50;;;;;;;;;22.25;16.50;;;;;3.67;85.47;102476.19;4981369;28;45338;-76
2022/01/11 01:07:16;;;;;;;;;24.00;22.00;;;;;3.71;86.14;102482.94;4980023;28;45232;-76
2022/01/11 01:09:58;;;;;;;;;25.67;22.33;;;;;3.73;85.69;102488.13;4979492;28;45338;-76
2022/01/11 01:12:23;;;;;;;;;24.25;22.50;;;;;3.74;85.84;102492.47;4981308;28;45856;-76
2022/01/11 01:14:49;;;;;;;;;25.50;22.00;;;;;3.69;85.85;102490.09;4981242;28;45272;-76
2022/01/11 01:17:14;;;;;;;;;24.75;21.75;;;;;3.60;86.20;102483.56;4981405;28;45288;-76
2022/01/11 01:19:40;;;;;;;;;19.00;19.00;;;;;3.60;85.91;102486.19;5020869;28;45501;-76
2022/01/11 01:22:05;;;;;;;;;22.50;20.75;;;;;3.63;86.18;102495.69;5020794;28;45395;-77
2022/01/11 01:24:31;;;;;;;;;26.50;23.75;;;;;3.62;85.67;102492.19;5020496;28;45385;-76
2022/01/11 01:26:56;;;;;;;;;19.50;16.00;;;;;3.59;86.33;102479.22;5020708;28;45309;-76
2022/01/11 01:29:21;;;;;;;;;24.50;20.50;;;;;3.59;85.97;102492.38;5020805;28;45422;-76
2022/01/11 01:31:47;;;;;;;;;23.00;19.25;;;;;3.59;85.87;102484.47;5020602;28;45305;-76
2022/01/11 01:34:12;;;;;;;;;23.25;19.50;;;;;3.59;86.24;102488.91;5020429;28;45396;-76
2022/01/11 01:36:38;;;;;;;;;23.00;21.75;;;;;3.54;85.64;102478.66;5020447;28;45281;-75
2022/01/11 01:39:04;;;;;;;;;21.75;20.50;;;;;3.47;85.73;102474.66;5020585;28;45317;-76
2022/01/11 01:41:29;;;;;;;;;19.00;14.75;;;;;3.43;85.45;102494.16;5020530;28;46109;-76
2022/01/11 01:43:59;;;;;;;;;16.25;15.75;;;;;3.44;85.46;102498.50;5018838;28;47653;-76
2022/01/11 01:46:24;;;;;;;;;21.75;18.50;;;;;3.37;86.01;102495.34;5020377;28;45193;-76
2022/01/11 01:48:50;;;;;;;;;17.25;17.25;;;;;3.34;85.49;102506.88;5020234;28;45484;-77
2022/01/11 01:51:16;;;;;;;;;19.67;17.67;;;;;3.35;86.20;102513.00;5020345;28;45320;-76
2022/01/11 01:53:45;;;;;;;;;15.50;15.25;;;;;3.22;85.88;102497.00;5020187;28;45302;-76
2022/01/11 01:56:12;;;;;;;;;17.00;15.00;;;;;3.20;85.88;102504.13;5020113;28;45303;-75
2022/01/11 01:58:37;;;;;;;;;13.00;12.75;;;;;3.21;86.12;102516.34;5019077;28;45302;-77
2022/01/11 02:01:04;;;;;;;;;20.00;16.50;;;;;3.23;86.30;102530.25;5020141;28;45177;-76
2022/01/11 02:03:37;;;;;;;;;17.33;17.33;;;;;3.22;86.24;102531.16;5018564;28;48324;-76
2022/01/11 02:06:03;;;;;;;;;17.67;17.00;;;;;3.20;86.49;102527.78;5018593;28;45448;-76
2022/01/11 02:08:29;;;;;;;;;15.33;14.33;;;;;3.01;86.56;102491.97;5020065;28;45481;-76
2022/01/11 02:10:55;;;;;;;;;19.00;15.50;;;;;3.11;86.84;102505.47;5019751;28;45252;-76
2022/01/11 02:13:20;;;;;;;;;22.00;22.00;;;;;3.21;87.09;102505.84;5019929;28;45433;-77
2022/01/11 02:15:46;;;;;;;;;19.67;18.00;;;;;3.27;85.99;102510.75;5019994;28;45336;-76
2022/01/11 02:18:15;;;;;;;;;21.00;16.33;;;;;3.17;85.97;102493.78;5001268;28;45378;-76
2022/01/11 02:20:45;;;;;;;;;18.00;17.00;;;;;3.23;86.53;102510.06;4979668;28;45294;-76
2022/01/11 02:23:14;;;;;;;;;15.25;15.25;;;;;3.36;86.07;102523.41;5011987;28;46995;-76
2022/01/11 02:25:41;;;;;;;;;18.25;17.50;;;;;3.27;86.04;102510.75;4980018;28;45269;-76
2022/01/11 02:28:09;;;;;;;;;17.67;16.33;;;;;3.26;86.33;102499.38;4980575;28;45396;-76
2022/01/11 02:30:35;;;;;;;;;17.50;15.25;;;;;3.40;86.47;102513.56;4995289;28;46118;-76
2022/01/11 02:33:04;;;;;;;;;17.00;14.00;;;;;3.48;86.76;102521.91;5011684;28;48243;-76
2022/01/11 02:35:30;;;;;;;;;20.00;18.00;;;;;3.46;86.43;102520.25;4980208;28;45311;-76
2022/01/11 02:37:55;;;;;;;;;15.33;14.33;;;;;3.48;85.92;102521.91;5011654;28;45286;-76
2022/01/11 02:40:20;;;;;;;;;19.00;16.00;;;;;3.54;85.53;102524.19;5011765;28;45954;-76
2022/01/11 02:42:46;;;;;;;;;15.00;15.00;;;;;3.49;85.70;102515.72;4980056;28;45332;-76
2022/01/11 02:45:14;;;;;;;;;24.00;16.67;;;;;3.64;85.49;102549.97;4980162;28;45272;-76
2022/01/11 02:47:40;;;;;;;;;20.75;20.00;;;;;3.47;85.26;102519.34;5011701;28;45308;-76
2022/01/11 02:50:06;;;;;;;;;25.00;20.75;;;;;3.39;85.82;102515.34;4994863;28;45858;-77
2022/01/11 02:52:31;;;;;;;;;25.00;20.25;;;;;3.43;85.85;102526.56;4979945;28;45262;-76
2022/01/11 02:54:57;;;;;;;;;21.75;20.25;;;;;3.45;85.61;102516.81;4979738;28;45297;-76
2022/01/11 02:57:22;;;;;;;;;22.25;18.50;;;;;3.44;85.56;102517.72;4980128;28;45360;-77
2022/01/11 02:59:48;;;;;;;;;20.25;19.25;;;;;3.28;85.77;102494.06;5011550;28;45934;-76
2022/01/11 03:02:13;;;;;;;;;21.25;20.00;;;;;3.37;85.91;102525.09;5011368;28;46019;-76
2022/01/11 03:04:38;;;;;;;;;18.00;18.00;;;;;3.33;86.01;102522.72;5011234;28;45345;-76
2022/01/11 03:07:04;;;;;;;;;26.00;23.00;;;;;3.43;85.65;102536.22;4979735;28;45327;-76
2022/01/11 03:09:38;;;;;;;;;23.25;19.75;;;;;3.35;85.85;102521.69;4979545;28;45466;-76
2022/01/11 03:12:04;;;;;;;;;21.75;20.75;;;;;3.44;86.10;102530.03;4979782;28;45361;-76
2022/01/11 03:14:29;;;;;;;;;27.00;24.00;;;;;3.33;85.81;102513.06;4979694;28;45330;-76
2022/01/11 03:16:54;;;;;;;;;20.25;20.00;;;;;3.46;85.16;102533.41;4979899;28;45351;-76
2022/01/11 03:19:20;;;;;;;;;20.75;18.00;;;;;3.35;85.58;102519.06;5047234;28;46386;-76
2022/01/11 03:21:45;;;;;;;;;23.25;23.00;;;;;3.46;85.86;102536.03;5019136;28;45236;-77
2022/01/11 03:24:10;;;;;;;;;22.25;19.75;;;;;3.43;85.53;102533.56;5018948;28;45233;-76
2022/01/11 03:26:36;;;;;;;;;26.25;21.50;;;;;3.40;85.87;102524.94;5019240;28;45240;-76
2022/01/11 03:29:01;;;;;;;;;25.25;22.75;;;;;3.57;86.13;102548.63;5019088;28;45253;-77
2022/01/11 03:31:27;;;;;;;;;23.25;19.50;;;;;3.49;85.36;102542.00;5017686;28;45477;-76
2022/01/11 03:33:53;;;;;;;;;22.75;21.50;;;;;3.60;85.65;102562.47;5022139;28;45368;-76
2022/01/11 03:36:18;;;;;;;;;28.75;23.25;;;;;3.60;84.98;102551.09;5022348;28;45183;-76
2022/01/11 03:38:43;;;;;;;;;26.75;23.00;;;;;3.64;85.38;102558.72;5022482;28;45221;-76
2022/01/11 03:41:09;;;;;;;;;26.50;25.00;;;;;3.64;85.48;102574.50;5022213;28;45633;-76
2022/01/11 03:43:34;;;;;;;;;26.75;22.75;;;;;3.52;85.09;102556.75;5020894;28;45249;-76
2022/01/11 03:46:00;;;;;;;;;27.25;21.00;;;;;3.58;85.21;102569.56;5021137;28;45277;-76
2022/01/11 03:48:26;;;;;;;;;22.75;20.75;;;;;3.61;84.87;102569.41;5021797;28;45425;-76
2022/01/11 03:50:53;;;;;;;;;17.25;17.25;;;;;3.71;84.67;102571.53;5022285;28;47172;-76
2022/01/11 03:53:22;;;;;;;;;21.25;18.00;;;;;3.72;84.51;102573.22;5020860;28;45313;-76
2022/01/11 03:58:16;;;;;;;;;23.50;20.75;;;;;3.59;84.53;102560.75;5021910;28;45352;-76
2022/01/11 04:00:43;;;;;;;;;18.00;18.00;;;;;3.47;84.34;102559.63;5020595;28;47088;-75
2022/01/11 04:03:09;;;;;;;;;20.50;20.00;;;;;3.53;84.39;102584.72;5021938;28;45485;-75
2022/01/11 04:05:34;;;;;;;;;20.50;19.75;;;;;3.46;84.99;102570.22;5021963;28;45318;-76
2022/01/11 04:08:00;;;;;;;;;21.50;20.50;;;;;3.58;85.01;102590.59;5021620;28;45333;-76
2022/01/11 04:10:25;;;;;;;;;20.50;19.00;;;;;3.52;84.78;102572.53;5021581;28;45244;-76
2022/01/11 04:12:52;;;;;;;;;19.25;18.25;;;;;3.57;85.13;102590.69;5021908;28;45282;-76
2022/01/11 04:15:17;;;;;;;;;21.00;19.75;;;;;3.56;84.57;102581.13;5021940;28;45217;-76
2022/01/11 04:17:43;;;;;;;;;24.25;20.50;;;;;3.51;84.46;102549.81;5010675;28;46010;-76
2022/01/11 04:20:09;;;;;;;;;24.50;19.00;;;;;3.46;84.39;102557.94;5013478;28;47217;-76
2022/01/11 04:22:34;;;;;;;;;21.50;19.50;;;;;3.41;84.03;102566.06;4982252;28;45211;-76
2022/01/11 04:25:00;;;;;;;;;21.50;19.00;;;;;3.35;84.07;102562.94;4982064;28;45221;-76
2022/01/11 04:27:25;;;;;;;;;23.00;22.00;;;;;3.30;84.14;102542.13;4982232;28;45349;-76
2022/01/11 04:29:50;;;;;;;;;24.75;22.00;;;;;3.39;84.91;102562.66;4982063;28;45326;-77
2022/01/11 04:32:16;;;;;;;;;25.25;23.00;;;;;3.35;84.51;102555.88;4982222;28;45341;-76
2022/01/11 04:34:41;;;;;;;;;23.25;20.50;;;;;3.46;85.28;102568.44;4980718;28;45393;-76
2022/01/11 04:37:07;;;;;;;;;22.50;20.00;;;;;3.44;84.51;102557.16;4982041;28;45375;-76
2022/01/11 04:39:32;;;;;;;;;22.75;19.50;;;;;3.52;84.64;102570.75;4981790;28;45540;-76
2022/01/11 04:41:57;;;;;;;;;31.00;28.00;;;;;3.49;84.30;102560.41;4980706;28;45945;-75
2022/01/11 04:44:23;;;;;;;;;30.00;24.25;;;;;3.39;84.48;102556.56;5012997;28;45457;-76
2022/01/11 04:46:48;;;;;;;;;27.75;25.25;;;;;3.37;84.62;102559.28;4981842;28;45380;-76
2022/01/11 04:49:14;;;;;;;;;27.75;24.75;;;;;3.48;85.05;102565.75;4981557;28;45296;-76
2022/01/11 04:51:39;;;;;;;;;30.25;24.75;;;;;3.48;84.62;102568.38;5013296;28;45335;-76
2022/01/11 04:54:05;;;;;;;;;25.75;22.00;;;;;3.52;84.06;102593.56;5013518;28;45533;-76
2022/01/11 04:56:30;;;;;;;;;18.00;18.00;;;;;3.38;84.27;102576.75;4981716;28;45209;-76
2022/01/11 04:58:57;;;;;;;;;29.25;27.25;;;;;3.50;83.78;102596.28;4981520;28;46173;-76
2022/01/11 05:01:23;;;;;;;;;29.50;26.00;;;;;3.43;84.13;102583.53;4981662;28;45210;-76
2022/01/11 05:03:48;;;;;;;;;22.00;19.25;;;;;3.36;83.74;102583.00;4981545;28;45259;-76
2022/01/11 05:06:14;;;;;;;;;29.00;26.00;;;;;3.25;83.89;102571.28;5013058;28;46184;-77
2022/01/11 05:08:40;;;;;;;;;24.25;21.25;;;;;3.26;83.94;102577.38;4981517;28;46500;-75
2022/01/11 05:11:06;;;;;;;;;26.75;23.25;;;;;3.33;84.23;102593.69;4981358;28;45370;-76
2022/01/11 05:13:32;;;;;;;;;27.50;23.25;;;;;3.34;83.88;102601.50;4981678;28;45407;-76
2022/01/11 05:15:59;;;;;;;;;25.75;25.75;;;;;3.28;84.15;102594.78;4996346;28;46460;-76
2022/01/11 05:18:24;;;;;;;;;25.00;23.00;;;;;3.26;84.43;102614.16;5001464;28;45373;-75
2022/01/11 05:20:50;;;;;;;;;24.25;24.00;;;;;3.20;83.53;102607.47;5020807;28;45356;-76
2022/01/11 05:23:16;;;;;;;;;25.00;24.00;;;;;3.21;83.71;102603.06;5020911;28;45217;-76
2022/01/11 05:25:43;;;;;;;;;23.25;23.25;;;;;3.26;83.99;102611.53;5019278;28;46094;-76
2022/01/11 05:28:08;;;;;;;;;25.50;21.50;;;;;3.26;83.34;102607.16;5020511;28;46978;-76
2022/01/11 05:30:34;;;;;;;;;25.75;23.50;;;;;3.15;83.81;102596.34;5020488;28;45246;-76
2022/01/11 05:32:59;;;;;;;;;24.25;22.25;;;;;3.12;83.21;102613.09;5020637;28;45281;-75
2022/01/11 05:35:25;;;;;;;;;26.25;24.25;;;;;3.08;83.41;102611.56;5020593;28;45297;-76
2022/01/11 05:37:52;;;;;;;;;32.00;27.00;;;;;3.09;83.83;102615.91;5020489;28;45359;-77
2022/01/11 05:40:19;;;;;;;;;23.75;22.75;;;;;3.06;84.14;102605.56;5020514;28;45389;-76
2022/01/11 05:42:45;;;;;;;;;27.00;23.50;;;;;3.05;84.01;102611.72;5020524;28;45355;-76
2022/01/11 05:45:12;;;;;;;;;22.75;22.50;;;;;3.02;84.40;102606.63;5013482;28;45290;-76
2022/01/11 05:47:38;;;;;;;;;27.00;27.00;;;;;2.99;84.00;102599.75;5014912;28;48408;-76
2022/01/11 05:50:07;;;;;;;;;29.25;23.75;;;;;2.99;83.96;102599.75;5000301;28;45293;-76
2022/01/11 05:52:35;;;;;;;;;35.50;30.75;;;;;3.00;85.10;102598.00;5000913;28;45441;-76
2022/01/11 05:55:01;;;;;;;;;31.00;25.75;;;;;2.93;84.71;102597.44;5033253;28;47466;-77
2022/01/11 05:57:26;;;;;;;;;29.25;24.75;;;;;3.01;84.29;102613.69;4999593;28;45277;-75
2022/01/11 05:59:51;;;;;;;;;25.75;24.25;;;;;3.00;84.35;102622.47;5000910;28;45292;-76
2022/01/11 06:02:17;;;;;;;;;20.75;20.75;;;;;2.81;83.42;102601.53;5001503;28;45381;-79
2022/01/11 06:04:42;;;;;;;;;24.25;23.25;;;;;2.72;83.73;102596.78;5001474;28;45290;-77
2022/01/11 06:07:08;;;;;;;;;28.75;24.75;;;;;2.80;84.31;102625.25;5000827;28;45279;-77
2022/01/11 06:09:33;;;;;;;;;24.25;21.50;;;;;2.83;84.95;102631.22;5000121;28;45276;-78
2022/01/11 06:11:58;;;;;;;;;26.75;24.25;;;;;2.85;84.28;102637.25;4999090;28;45191;-77
2022/01/11 06:14:24;;;;;;;;;32.00;27.00;;;;;2.87;85.09;102645.88;5000309;28;45440;-78
2022/01/11 06:16:49;;;;;;;;;29.50;25.75;;;;;2.85;84.15;102629.38;5000102;28;46326;-79
2022/01/11 06:19:15;;;;;;;;;41.00;38.25;;;;;2.97;85.27;102643.66;5015038;28;45248;-78
2022/01/11 06:21:40;;;;;;;;;25.25;23.50;;;;;2.64;83.87;102597.97;5000268;28;45572;-78
2022/01/11 06:24:07;;;;;;;;;22.75;19.50;;;;;2.84;83.56;102632.91;4999996;28;45353;-79
2022/01/11 06:26:33;;;;;;;;;26.00;25.00;;;;;2.81;85.03;102626.97;4999904;28;46437;-77
2022/01/11 06:29:00;;;;;;;;;25.50;23.75;;;;;2.86;84.41;102640.72;4999975;28;45264;-77
2022/01/11 06:31:26;;;;;;;;;24.50;20.50;;;;;2.81;84.19;102633.06;5000038;28;45172;-78
2022/01/11 06:33:51;;;;;;;;;24.75;20.75;;;;;2.85;83.90;102646.91;4998346;28;46457;-78
2022/01/11 06:36:18;;;;;;;;;27.50;23.75;;;;;2.86;84.52;102651.22;4999876;28;45256;-79
2022/01/11 06:38:44;;;;;;;;;27.50;25.00;;;;;2.80;83.59;102641.00;4999912;28;45255;-79
2022/01/11 06:41:10;;;;;;;;;26.50;23.75;;;;;2.83;83.98;102636.47;4999911;28;45247;-78
2022/01/11 06:43:37;;;;;;;;;28.75;21.00;;;;;2.98;85.06;102652.38;4999697;28;45497;-78
2022/01/11 06:46:03;;;;;;;;;22.75;22.75;;;;;2.91;84.10;102646.59;4999662;28;45371;-78
2022/01/11 06:48:29;;;;;;;;;26.75;25.00;;;;;2.94;83.79;102663.97;4999520;28;45305;-76
2022/01/11 06:50:54;;;;;;;;;26.50;25.75;;;;;2.82;83.77;102663.66;4998304;28;45359;-76
2022/01/11 06:53:20;;;;;;;;;25.00;21.50;;;;;2.80;84.04;102673.38;4999865;28;45346;-76
2022/01/11 06:55:45;;;;;;;;;23.75;22.25;;;;;2.73;83.79;102666.72;4999470;28;45294;-76
2022/01/11 06:58:11;;;;;;;;;29.75;27.75;;;;;2.66;83.86;102663.53;4998333;28;45263;-76
2022/01/11 07:00:36;;;;;;;;;31.75;26.00;;;;;2.68;83.78;102663.47;4999870;28;45188;-76
2022/01/11 07:03:01;;;;;;;;;34.75;33.50;;;;;2.73;83.75;102679.88;4999569;28;45466;-76
2022/01/11 07:05:27;;;;;;;;;24.75;23.75;;;;;2.66;84.35;102676.66;4999552;28;45414;-76
2022/01/11 07:07:52;;;;;;;;;29.50;24.00;;;;;2.67;84.19;102677.53;4999208;28;45322;-76
2022/01/11 07:10:18;;;;;;;;;31.25;28.00;;;;;2.76;84.73;102691.06;5002102;28;45293;-77
2022/01/11 07:12:44;;;;;;;;;29.50;24.75;;;;;2.69;84.71;102688.81;5002252;28;45488;-76
2022/01/11 07:15:10;;;;;;;;;23.25;19.25;;;;;2.81;85.27;102703.97;5002415;28;45159;-76
2022/01/11 07:17:37;;;;;;;;;28.75;28.50;;;;;2.82;84.81;102702.19;5006431;28;45362;-76
2022/01/11 07:20:04;;;;;;;;;29.00;28.25;;;;;2.76;84.88;102695.47;5022987;28;45418;-77
2022/01/11 07:22:29;;;;;;;;;34.00;26.25;;;;;2.83;83.73;102704.75;5020217;28;46061;-77
2022/01/11 07:24:55;;;;;;;;;31.50;26.75;;;;;2.70;84.38;102677.38;5003296;28;45338;-77
2022/01/11 07:27:20;;;;;;;;;28.75;28.75;;;;;2.83;85.03;102706.53;5018552;28;45630;-77
2022/01/11 07:29:46;;;;;;;;;21.25;21.00;;;;;2.82;85.10;102710.09;5003493;28;45423;-76
2022/01/11 07:32:12;;;;;;;;;33.50;26.00;;;;;2.84;84.62;102710.88;5001854;28;45525;-76
2022/01/11 07:34:37;;;;;;;;;36.00;32.00;;;;;2.82;84.59;102704.81;5008238;28;46257;-76
2022/01/11 07:37:03;;;;;;;;;28.25;27.00;;;;;2.77;83.87;102694.53;5001418;28;45307;-76
2022/01/11 07:39:28;;;;;;;;;33.00;30.75;;;;;2.88;84.27;102718.50;5014682;28;45463;-77
2022/01/11 07:41:53;;;;;;;;;29.50;28.25;;;;;2.84;84.82;102706.44;5032116;28;46676;-77
2022/01/11 07:44:19;;;;;;;;;35.00;29.25;;;;;2.92;84.38;102721.84;5011429;28;45629;-76
2022/01/11 07:46:45;;;;;;;;;38.50;31.75;;;;;2.98;84.76;102732.06;5000999;28;45385;-76
2022/01/11 07:49:10;;;;;;;;;35.50;30.75;;;;;2.94;84.35;102717.38;5015845;28;45433;-77
2022/01/11 07:51:36;;;;;;;;;30.25;29.00;;;;;3.00;84.18;102724.94;5000730;28;45463;-76
2022/01/11 07:54:02;;;;;;;;;33.25;32.00;;;;;2.89;83.98;102708.84;5002793;28;46019;-76
2022/01/11 07:56:27;;;;;;;;;35.00;29.25;;;;;2.87;83.05;102715.94;5002240;28;45525;-76
2022/01/11 07:58:53;;;;;;;;;32.25;27.50;;;;;2.84;83.95;102724.84;5002430;28;45296;-76
2022/01/11 08:01:18;;;;;;;;;35.75;32.25;;;;;2.71;84.85;102711.44;5002256;28;45472;-76
2022/01/11 08:03:46;;;;;;;;;41.25;38.00;;;;;2.78;84.00;102723.34;5001604;28;46268;-76
2022/01/11 08:06:11;;;;;;;;;31.25;25.00;;;;;2.86;84.75;102735.25;5000877;28;45390;-76
2022/01/11 08:08:36;;;;;;;;;30.25;25.00;;;;;2.83;84.56;102728.38;5001073;28;45347;-76
2022/01/11 08:11:02;;;;;;;;;35.50;30.75;;;;;2.92;84.39;102736.75;5000517;28;45439;-76
2022/01/11 08:13:27;;;;;;;;;37.50;32.50;;;;;2.99;84.79;102752.13;5032666;28;48334;-76
2022/01/11 08:15:53;;;;;;;;;36.00;31.25;;;;;2.99;84.43;102746.06;5000827;28;45263;-76
2022/01/11 08:18:18;;;;;;;;;36.50;31.75;;;;;2.98;84.28;102736.44;5009309;28;45677;-76
2022/01/11 08:20:44;;;;;;;;;36.50;33.25;;;;;2.96;84.66;102733.88;5019537;28;45324;-76
2022/01/11 08:23:11;;;;;;;;;45.75;35.25;;;;;3.13;84.13;102759.34;5018650;28;46059;-76
2022/01/11 08:25:36;;;;;;;;;37.50;35.75;;;;;3.18;84.52;102751.25;5020805;28;45352;-76
2022/01/11 08:28:02;;;;;;;;;33.50;29.50;;;;;3.15;84.61;102744.34;5020913;28;45729;-76
2022/01/11 08:30:27;;;;;;;;;36.75;34.25;;;;;3.30;84.64;102756.81;5020751;28;45416;-76
2022/01/11 08:32:52;;;;;;;;;35.25;35.25;;;;;3.25;83.93;102750.00;5021383;28;45247;-76
2022/01/11 08:35:18;;;;;;;;;39.00;33.25;;;;;3.20;83.65;102746.75;5021505;28;45367;-75
2022/01/11 08:37:44;;;;;;;;;31.50;29.75;;;;;3.19;83.12;102746.81;5021639;28;45316;-77
2022/01/11 08:40:11;;;;;;;;;34.50;31.00;;;;;3.21;84.38;102758.13;5021317;28;45491;-75
2022/01/11 08:42:37;;;;;;;;;34.50;30.00;;;;;3.12;84.23;102736.63;5021462;28;45264;-77
2022/01/11 08:45:03;;;;;;;;;33.50;30.25;;;;;3.25;84.53;102751.78;5021428;28;45212;-76
2022/01/11 08:47:30;;;;;;;;;45.75;35.25;;;;;3.26;84.36;102758.72;5021456;28;45158;-75
2022/01/11 08:49:59;;;;;;;;;35.75;30.25;;;;;3.25;84.34;102765.78;5019628;28;45919;-76
2022/01/11 08:52:25;;;;;;;;;32.00;30.00;;;;;3.27;83.63;102758.66;5021113;28;45348;-76
2022/01/11 08:54:51;;;;;;;;;33.00;31.75;;;;;3.24;83.86;102757.97;5021268;28;45307;-74
2022/01/11 08:57:19;;;;;;;;;35.75;32.25;;;;;3.28;83.49;102763.00;5021266;28;45467;-76
2022/01/11 08:59:45;;;;;;;;;37.25;34.00;;;;;3.38;84.59;102767.81;5021251;28;45295;-76
2022/01/11 09:02:12;;;;;;;;;39.75;33.25;;;;;3.44;84.06;102759.59;5020988;28;46349;-76
2022/01/11 09:04:37;;;;;;;;;34.25;30.75;;;;;3.41;83.74;102749.22;5020930;28;45350;-76
2022/01/11 09:07:03;;;;;;;;;36.50;34.00;;;;;3.57;83.48;102766.88;5019603;28;45295;-76
2022/01/11 09:09:31;;;;;;;;;38.75;32.25;;;;;3.50;83.28;102754.03;5020657;28;45312;-76
2022/01/11 09:11:57;;;;;;;;;33.25;31.75;;;;;3.58;83.72;102771.19;5021066;28;46079;-76
2022/01/11 09:14:23;;;;;;;;;28.50;28.25;;;;;3.59;84.18;102762.41;5020945;28;45255;-76
2022/01/11 09:16:48;;;;;;;;;35.50;32.75;;;;;3.68;83.91;102772.41;5020954;28;45304;-75
2022/01/11 09:19:15;;;;;;;;;38.50;34.75;;;;;3.79;83.53;102780.63;5003186;28;45545;-75
2022/01/11 09:21:41;;;;;;;;;36.25;35.00;;;;;3.87;83.46;102785.50;5000926;28;45979;-76
2022/01/11 09:24:08;;;;;;;;;39.75;32.00;;;;;3.86;83.03;102783.78;5000892;28;45281;-77
2022/01/11 09:26:34;;;;;;;;;32.75;25.75;;;;;3.99;83.09;102789.28;5001190;28;45344;-75
2022/01/11 09:28:59;;;;;;;;;32.50;28.25;;;;;4.05;82.60;102796.00;5000745;28;45353;-76
2022/01/11 09:31:25;;;;;;;;;33.75;30.00;;;;;4.08;82.79;102792.34;5000340;28;45323;-76
2022/01/11 09:33:51;;;;;;;;;33.50;26.25;;;;;4.04;82.42;102774.09;4994553;28;45336;-76
2022/01/11 09:36:17;;;;;;;;;41.25;34.50;;;;;4.22;82.88;102796.88;4990127;28;45273;-76
2022/01/11 09:38:43;;;;;;;;;35.00;30.75;;;;;4.27;82.41;102800.13;4994218;28;45294;-75
2022/01/11 09:41:08;;;;;;;;;39.00;35.00;;;;;4.36;82.75;102798.78;4999135;28;46111;-76
2022/01/11 09:43:33;;;;;;;;;30.75;27.75;;;;;4.46;82.81;102813.13;4998733;28;45285;-76
2022/01/11 09:45:59;;;;;;;;;34.25;31.00;;;;;4.52;82.61;102814.63;5004221;28;45467;-76
2022/01/11 09:48:28;;;;;;;;;32.50;25.00;;;;;4.53;82.09;102809.25;5021876;28;45378;-76
2022/01/11 09:50:54;;;;;;;;;28.50;27.25;;;;;4.67;82.20;102819.03;5006222;28;46059;-75
2022/01/11 09:53:19;;;;;;;;;32.25;32.25;;;;;4.62;81.96;102800.00;5000735;28;45321;-76
2022/01/11 09:55:45;;;;;;;;;35.25;31.75;;;;;4.49;80.88;102805.06;5005045;28;45704;-76
2022/01/11 09:58:12;;;;;;;;;31.25;27.75;;;;;4.42;80.96;102819.50;4999795;28;45529;-76
2022/01/11 10:00:39;;;;;;;;;29.75;27.00;;;;;4.32;81.64;102808.63;5014874;28;47281;-75
2022/01/11 10:03:06;;;;;;;;;29.00;25.75;;;;;4.34;81.61;102824.34;5014810;28;45284;-75
2022/01/11 10:05:32;;;;;;;;;35.75;32.50;;;;;4.35;81.54;102824.28;5000716;28;45369;-76
2022/01/11 10:07:59;;;;;;;;;33.00;27.75;;;;;4.34;81.80;102821.72;5015146;28;45449;-75
2022/01/11 10:10:26;;;;;;;;;29.00;27.00;;;;;4.26;81.09;102811.59;5002037;28;46223;-76
2022/01/11 10:12:55;;;;;;;;;28.75;26.25;;;;;4.38;80.97;102833.78;5000160;28;45292;-76
2022/01/11 10:15:29;;;;;;;;;36.00;31.50;;;;;4.35;81.41;102820.78;5000266;28;45312;-76
2022/01/11 10:17:54;;;;;;;;;32.25;29.00;;;;;4.42;81.78;102825.63;5005917;28;45329;-76
2022/01/11 10:20:22;;;;;;;;;39.25;33.25;;;;;4.38;82.01;102825.88;5019820;28;46067;-76
2022/01/11 10:22:57;;;;;;;;;36.25;29.75;;;;;4.38;81.92;102826.75;5019947;28;45260;-76
2022/01/11 10:25:23;;;;;;;;;32.00;27.25;;;;;4.43;81.54;102831.72;5018440;28;45424;-76
2022/01/11 10:27:54;;;;;;;;;32.50;30.50;;;;;4.38;81.93;102837.28;5019758;28;45321;-76
2022/01/11 10:30:23;;;;;;;;;33.00;32.50;;;;;4.36;81.81;102827.72;5019780;28;45299;-76
2022/01/11 10:32:50;;;;;;;;;39.50;33.75;;;;;4.46;81.67;102843.91;5018195;28;45360;-76
2022/01/11 10:35:19;;;;;;;;;32.00;28.25;;;;;4.45;81.79;102843.03;5020272;28;45336;-76
2022/01/11 10:37:48;;;;;;;;;30.50;28.00;;;;;4.46;82.02;102834.22;5019866;28;47277;-76
2022/01/11 10:40:18;;;;;;;;;32.00;32.00;;;;;4.57;81.85;102852.06;5019566;28;45338;-76
2022/01/11 10:42:50;;;;;;;;;41.50;35.00;;;;;4.51;81.24;102845.34;5018775;28;45278;-76
2022/01/11 10:45:19;;;;;;;;;31.00;28.50;;;;;4.44;80.86;102835.22;5019734;28;45273;-76
2022/01/11 10:48:09;;;;;;;;;38.75;30.25;;;;;4.55;81.37;102851.31;5019240;28;45406;-76
2022/01/11 10:50:46;;;;;;;;;41.25;35.50;;;;;4.60;81.67;102854.53;5019464;28;45448;-76
2022/01/11 10:53:20;;;;;;;;;36.25;30.75;;;;;4.67;81.09;102853.28;5018005;28;45382;-76
2022/01/11 10:55:58;;;;;;;;;36.50;31.00;;;;;4.70;81.68;102848.78;4998064;28;45304;-76
2022/01/11 10:58:25;;;;;;;;;41.50;33.00;;;;;4.64;81.82;102831.53;5000372;28;45333;-75
2022/01/11 11:00:53;;;;;;;;;39.00;35.50;;;;;4.85;81.59;102855.84;5013791;28;48128;-76
2022/01/11 11:03:23;;;;;;;;;42.50;37.00;;;;;4.86;81.47;102839.13;5014525;28;45348;-75
2022/01/11 11:05:58;;;;;;;;;38.00;35.00;;;;;4.99;81.32;102844.53;4999533;28;45256;-76
2022/01/11 11:08:30;;;;;;;;;41.50;36.75;;;;;5.00;81.02;102832.22;4999911;28;45264;-75
2022/01/11 11:10:56;;;;;;;;;32.75;31.75;;;;;4.99;80.71;102843.69;4999374;28;45249;-76
2022/01/11 11:13:27;;;;;;;;;39.25;33.25;;;;;4.92;80.75;102841.41;5009730;28;45280;-76
2022/01/11 11:15:54;;;;;;;;;38.50;35.00;;;;;4.97;80.46;102842.94;5000338;28;45415;-76
2022/01/11 11:18:32;;;;;;;;;35.75;31.25;;;;;4.94;80.34;102843.97;5014827;28;45753;-76